Time,TemperatureF,DewpointF,PressureIn,WindDirection,WindDirectionDegrees,WindSpeedMPH,WindSpeedGustMPH,Humidity,HourlyPrecipIn,Conditions,Clouds,dailyrainin,SoftwareType,DateUTC
2013-02-15 00:02:00,32.0,28.0,30.01,WNW,292,0.0,4.0,84,0.00,,,0.00,,2013-02-15 06:02:00,
2013-02-15 00:11:00,32.0,28.0,30.01,WNW,292,0.0,4.0,84,0.00,,,0.00,,2013-02-15 06:11:00,
2013-02-15 00:21:00,32.0,28.0,30.01,West,281,0.0,3.0,85,0.00,,,0.00,,2013-02-15 06:21:00,
2013-02-15 00:32:00,32.0,28.0,30.01,WNW,302,1.0,5.0,86,0.00,,,0.00,,2013-02-15 06:32:00,
2013-02-15 00:42:00,32.0,28.0,30.01,WNW,302,1.0,5.0,86,0.00,,,0.00,,2013-02-15 06:42:00,
2013-02-15 00:51:00,32.0,28.0,30.01,NW,314,1.0,5.0,86,0.00,,,0.00,,2013-02-15 06:51:00,
2013-02-15 01:01:00,32.0,29.0,30.02,WNW,292,1.0,4.0,87,0.00,,,0.00,,2013-02-15 07:01:00,
2013-02-15 01:11:00,32.0,29.0,30.02,WNW,292,1.0,4.0,87,0.00,,,0.00,,2013-02-15 07:11:00,
2013-02-15 01:21:00,32.0,29.0,30.03,WNW,295,1.0,4.0,87,0.00,,,0.00,,2013-02-15 07:21:00,
2013-02-15 01:31:00,32.0,29.0,30.03,WNW,295,1.0,5.0,87,0.00,,,0.00,,2013-02-15 07:31:00,
2013-02-15 01:42:00,32.0,29.0,30.03,WNW,295,1.0,5.0,87,0.00,,,0.00,,2013-02-15 07:42:00,
2013-02-15 01:52:00,32.0,29.0,30.03,WSW,250,1.0,5.0,88,0.00,,,0.00,,2013-02-15 07:52:00,
2013-02-15 02:01:00,32.0,29.0,30.03,West,273,1.0,6.0,88,0.00,,,0.00,,2013-02-15 08:01:00,
2013-02-15 02:11:00,32.0,29.0,30.03,West,273,1.0,6.0,88,0.00,,,0.00,,2013-02-15 08:11:00,
2013-02-15 02:21:00,32.0,29.0,30.04,WNW,287,3.0,9.0,87,0.00,,,0.00,,2013-02-15 08:21:00,
2013-02-15 02:31:00,32.0,28.0,30.05,WNW,296,2.0,7.0,86,0.00,,,0.00,,2013-02-15 08:31:00,
2013-02-15 02:42:00,32.0,28.0,30.05,WNW,296,2.0,7.0,86,0.00,,,0.00,,2013-02-15 08:42:00,
2013-02-15 02:53:00,32.0,28.0,30.05,WNW,292,3.0,7.0,86,0.00,,,0.00,,2013-02-15 08:53:00,
2013-02-15 03:01:00,32.0,28.0,30.05,WNW,294,2.0,7.0,84,0.00,,,0.00,,2013-02-15 09:01:00,
2013-02-15 03:12:00,32.0,28.0,30.05,WNW,294,2.0,7.0,84,0.00,,,0.00,,2013-02-15 09:12:00,
2013-02-15 03:21:00,31.0,26.0,30.05,West,268,3.0,7.0,83,0.00,,,0.00,,2013-02-15 09:21:00,
2013-02-15 03:32:00,31.0,27.0,30.06,WNW,302,3.0,8.0,84,0.00,,,0.00,,2013-02-15 09:32:00,
2013-02-15 03:42:00,31.0,27.0,30.06,WNW,302,3.0,8.0,84,0.00,,,0.00,,2013-02-15 09:42:00,
2013-02-15 03:52:00,31.0,26.0,30.06,West,280,3.0,10.0,83,0.00,,,0.00,,2013-02-15 09:52:00,
2013-02-15 04:01:00,30.0,26.0,30.06,West,271,2.0,9.0,84,0.00,,,0.00,,2013-02-15 10:01:00,
2013-02-15 04:11:00,30.0,26.0,30.06,West,271,2.0,9.0,84,0.00,,,0.00,,2013-02-15 10:11:00,
2013-02-15 04:21:00,29.0,25.0,30.07,West,273,4.0,8.0,85,0.00,,,0.00,,2013-02-15 10:21:00,
2013-02-15 04:31:00,29.0,25.0,30.07,NW,314,3.0,8.0,86,0.00,,,0.00,,2013-02-15 10:31:00,
2013-02-15 04:41:00,29.0,25.0,30.07,NW,314,3.0,8.0,86,0.00,,,0.00,,2013-02-15 10:41:00,
2013-02-15 04:52:00,29.0,25.0,30.08,NW,308,4.0,8.0,86,0.00,,,0.00,,2013-02-15 10:52:00,
2013-02-15 05:01:00,29.0,25.0,30.09,WNW,296,4.0,11.0,85,0.00,,,0.00,,2013-02-15 11:01:00,
2013-02-15 05:11:00,29.0,25.0,30.09,WNW,296,4.0,11.0,85,0.00,,,0.00,,2013-02-15 11:11:00,
2013-02-15 05:22:00,29.0,25.0,30.09,WNW,292,4.0,10.0,84,0.00,,,0.00,,2013-02-15 11:22:00,
2013-02-15 05:32:00,29.0,25.0,30.10,NW,321,2.0,8.0,84,0.00,,,0.00,,2013-02-15 11:32:00,
2013-02-15 05:42:00,29.0,25.0,30.10,NW,321,2.0,8.0,84,0.00,,,0.00,,2013-02-15 11:42:00,
2013-02-15 05:52:00,28.0,24.0,30.10,NW,306,5.0,10.0,84,0.00,,,0.00,,2013-02-15 11:52:00,
2013-02-15 06:01:00,28.0,24.0,30.10,WNW,303,4.0,11.0,84,0.00,,,0.00,,2013-02-15 12:01:00,
2013-02-15 06:11:00,28.0,24.0,30.10,WNW,303,4.0,11.0,84,0.00,,,0.00,,2013-02-15 12:11:00,
2013-02-15 06:21:00,28.0,24.0,30.11,WSW,240,3.0,10.0,83,0.00,,,0.00,,2013-02-15 12:21:00,
2013-02-15 06:32:00,27.0,23.0,30.11,West,277,2.0,12.0,83,0.00,,,0.00,,2013-02-15 12:32:00,
2013-02-15 06:42:00,27.0,23.0,30.11,West,277,2.0,12.0,83,0.00,,,0.00,,2013-02-15 12:42:00,
2013-02-15 06:52:00,27.0,23.0,30.12,West,277,4.0,10.0,84,0.00,,,0.00,,2013-02-15 12:52:00,
2013-02-15 07:02:00,27.0,22.0,30.13,WSW,240,4.0,10.0,82,0.00,,,0.00,,2013-02-15 13:02:00,
2013-02-15 07:11:00,27.0,22.0,30.13,WSW,240,4.0,10.0,82,0.00,,,0.00,,2013-02-15 13:11:00,
2013-02-15 07:22:00,26.0,21.0,30.14,West,268,3.0,10.0,81,0.00,,,0.00,,2013-02-15 13:22:00,
2013-02-15 07:32:00,26.0,21.0,30.14,West,269,2.0,9.0,81,0.00,,,0.00,,2013-02-15 13:32:00,
2013-02-15 07:41:00,26.0,21.0,30.14,West,269,2.0,9.0,81,0.00,,,0.00,,2013-02-15 13:41:00,
2013-02-15 07:52:00,26.0,21.0,30.15,NW,319,5.0,11.0,80,0.00,,,0.00,,2013-02-15 13:52:00,
2013-02-15 08:01:00,26.0,21.0,30.16,WNW,302,3.0,10.0,80,0.00,,,0.00,,2013-02-15 14:01:00,
2013-02-15 08:11:00,26.0,21.0,30.16,WNW,302,3.0,10.0,80,0.00,,,0.00,,2013-02-15 14:11:00,
2013-02-15 08:21:00,26.0,20.0,30.17,NW,311,4.0,11.0,79,0.00,,,0.00,,2013-02-15 14:21:00,
2013-02-15 08:32:00,26.0,21.0,30.18,WNW,286,3.0,11.0,80,0.00,,,0.00,,2013-02-15 14:32:00,
2013-02-15 08:41:00,26.0,21.0,30.18,WNW,286,3.0,11.0,80,0.00,,,0.00,,2013-02-15 14:41:00,
2013-02-15 08:52:00,27.0,22.0,30.18,NNE,31,2.0,10.0,80,0.00,,,0.00,,2013-02-15 14:52:00,
2013-02-15 09:01:00,27.0,21.0,30.19,NNE,17,4.0,12.0,77,0.00,,,0.00,,2013-02-15 15:01:00,
2013-02-15 09:11:00,27.0,21.0,30.19,NNE,17,4.0,12.0,77,0.00,,,0.00,,2013-02-15 15:11:00,
2013-02-15 09:21:00,27.0,20.0,30.19,WNW,290,4.0,15.0,76,0.00,,,0.00,,2013-02-15 15:21:00,
2013-02-15 09:32:00,27.0,21.0,30.20,West,276,3.0,12.0,77,0.00,,,0.00,,2013-02-15 15:32:00,
2013-02-15 09:42:00,27.0,21.0,30.20,West,276,3.0,12.0,77,0.00,,,0.00,,2013-02-15 15:42:00,
2013-02-15 09:52:00,27.0,20.0,30.20,NNE,32,5.0,14.0,75,0.00,,,0.00,,2013-02-15 15:52:00,
2013-02-15 10:01:00,27.0,20.0,30.21,NNE,13,3.0,10.0,75,0.00,,,0.00,,2013-02-15 16:01:00,
2013-02-15 10:11:00,27.0,20.0,30.21,NNE,13,3.0,10.0,75,0.00,,,0.00,,2013-02-15 16:11:00,
2013-02-15 10:22:00,28.0,20.0,30.21,West,273,5.0,11.0,72,0.00,,,0.00,,2013-02-15 16:22:00,
2013-02-15 10:32:00,28.0,16.0,30.22,East,98,5.0,14.0,61,0.00,,,0.00,,2013-02-15 16:32:00,
2013-02-15 10:42:00,28.0,16.0,30.22,East,98,5.0,14.0,61,0.00,,,0.00,,2013-02-15 16:42:00,
2013-02-15 10:52:00,28.0,16.0,30.22,WNW,290,5.0,11.0,60,0.00,,,0.00,,2013-02-15 16:52:00,
2013-02-15 11:01:00,28.0,16.0,30.22,WNW,290,5.0,12.0,60,0.00,,,0.00,,2013-02-15 17:01:00,
2013-02-15 11:11:00,28.0,15.0,30.22,North,5,5.0,12.0,58,0.00,,,0.00,,2013-02-15 17:11:00,
2013-02-15 11:21:00,28.0,15.0,30.22,North,5,5.0,12.0,58,0.00,,,0.00,,2013-02-15 17:21:00,
2013-02-15 11:32:00,29.0,17.0,30.22,NW,309,3.0,10.0,60,0.00,,,0.00,,2013-02-15 17:32:00,
2013-02-15 11:42:00,29.0,17.0,30.22,NW,309,3.0,10.0,60,0.00,,,0.00,,2013-02-15 17:42:00,
2013-02-15 11:52:00,29.0,16.0,30.23,NNE,15,5.0,11.0,58,0.00,,,0.00,,2013-02-15 17:52:00,
2013-02-15 12:01:00,30.0,17.0,30.22,WNW,289,5.0,12.0,57,0.00,,,0.00,,2013-02-15 18:01:00,
2013-02-15 12:11:00,30.0,17.0,30.22,WNW,289,5.0,12.0,57,0.00,,,0.00,,2013-02-15 18:11:00,
2013-02-15 12:21:00,30.0,17.0,30.22,NNE,24,2.0,11.0,57,0.00,,,0.00,,2013-02-15 18:21:00,
2013-02-15 12:31:00,31.0,15.0,30.22,WNW,294,4.0,11.0,52,0.00,,,0.00,,2013-02-15 18:31:00,
2013-02-15 12:42:00,31.0,15.0,30.22,WNW,294,4.0,11.0,52,0.00,,,0.00,,2013-02-15 18:42:00,
2013-02-15 12:52:00,32.0,17.0,30.21,NNE,15,3.0,11.0,54,0.00,,,0.00,,2013-02-15 18:52:00,
2013-02-15 13:01:00,32.0,16.0,30.21,NNW,337,4.0,12.0,51,0.00,,,0.00,,2013-02-15 19:01:00,
2013-02-15 13:11:00,32.0,16.0,30.21,NNW,337,4.0,12.0,51,0.00,,,0.00,,2013-02-15 19:11:00,
2013-02-15 13:22:00,32.0,16.0,30.20,WSW,249,3.0,10.0,52,0.00,,,0.00,,2013-02-15 19:22:00,
2013-02-15 13:32:00,33.0,17.0,30.20,NNW,331,5.0,9.0,51,0.00,,,0.00,,2013-02-15 19:32:00,
2013-02-15 13:41:00,33.0,17.0,30.20,NNW,331,5.0,9.0,51,0.00,,,0.00,,2013-02-15 19:41:00,
2013-02-15 13:52:00,33.0,16.0,30.19,NW,311,4.0,11.0,50,0.00,,,0.00,,2013-02-15 19:52:00,
2013-02-15 14:01:00,33.0,16.0,30.20,NW,314,4.0,10.0,50,0.00,,,0.00,,2013-02-15 20:01:00,
2013-02-15 14:11:00,33.0,16.0,30.20,NW,314,4.0,10.0,50,0.00,,,0.00,,2013-02-15 20:11:00,
2013-02-15 14:21:00,33.0,16.0,30.20,NNW,333,4.0,10.0,49,0.00,,,0.00,,2013-02-15 20:21:00,
2013-02-15 14:32:00,33.0,15.0,30.20,NNE,15,4.0,11.0,46,0.00,,,0.00,,2013-02-15 20:32:00,
2013-02-15 14:42:00,33.0,15.0,30.20,NNE,15,4.0,11.0,46,0.00,,,0.00,,2013-02-15 20:42:00,
2013-02-15 14:52:00,33.0,16.0,30.20,WNW,298,5.0,9.0,49,0.00,,,0.00,,2013-02-15 20:52:00,
2013-02-15 15:01:00,33.0,15.0,30.20,West,269,4.0,10.0,48,0.00,,,0.00,,2013-02-15 21:01:00,
2013-02-15 15:11:00,33.0,15.0,30.20,West,269,4.0,10.0,48,0.00,,,0.00,,2013-02-15 21:11:00,
2013-02-15 15:21:00,33.0,15.0,30.20,West,269,4.0,10.0,48,0.00,,,0.00,,2013-02-15 21:21:00,
2013-02-15 15:31:00,33.0,15.0,30.20,West,281,4.0,11.0,46,0.00,,,0.00,,2013-02-15 21:31:00,
2013-02-15 15:42:00,33.0,15.0,30.20,West,281,4.0,11.0,46,0.00,,,0.00,,2013-02-15 21:42:00,
2013-02-15 15:52:00,33.0,15.0,30.20,West,281,4.0,11.0,46,0.00,,,0.00,,2013-02-15 21:52:00,
2013-02-15 16:02:00,33.0,15.0,30.20,NW,304,5.0,11.0,47,0.00,,,0.00,,2013-02-15 22:02:00,
2013-02-15 16:11:00,33.0,15.0,30.20,NW,304,5.0,11.0,47,0.00,,,0.00,,2013-02-15 22:11:00,
2013-02-15 16:22:00,33.0,14.0,30.20,NW,312,4.0,11.0,45,0.00,,,0.00,,2013-02-15 22:22:00,
2013-02-15 16:31:00,31.0,14.0,30.21,WNW,302,3.0,12.0,48,0.00,,,0.00,,2013-02-15 22:31:00,
2013-02-15 16:41:00,31.0,14.0,30.21,WNW,302,3.0,12.0,48,0.00,,,0.00,,2013-02-15 22:41:00,
2013-02-15 16:52:00,32.0,15.0,30.20,NW,306,3.0,10.0,48,0.00,,,0.00,,2013-02-15 22:52:00,
2013-02-15 17:02:00,32.0,15.0,30.20,NW,308,2.0,8.0,48,0.00,,,0.00,,2013-02-15 23:02:00,
2013-02-15 17:11:00,32.0,15.0,30.20,NW,308,2.0,8.0,48,0.00,,,0.00,,2013-02-15 23:11:00,
2013-02-15 17:21:00,32.0,15.0,30.20,NW,308,2.0,8.0,48,0.00,,,0.00,,2013-02-15 23:21:00,
2013-02-15 17:31:00,30.0,15.0,30.21,WNW,285,2.0,5.0,52,0.00,,,0.00,,2013-02-15 23:31:00,
2013-02-15 17:42:00,30.0,15.0,30.21,WNW,285,2.0,5.0,52,0.00,,,0.00,,2013-02-15 23:42:00,
2013-02-15 17:52:00,30.0,15.0,30.21,West,267,4.0,9.0,54,0.00,,,0.00,,2013-02-15 23:52:00,
2013-02-15 18:02:00,29.0,14.0,30.21,WNW,299,3.0,10.0,54,0.00,,,0.00,,2013-02-16 00:02:00,
2013-02-15 18:11:00,29.0,14.0,30.21,WNW,299,3.0,10.0,54,0.00,,,0.00,,2013-02-16 00:11:00,
2013-02-15 18:21:00,29.0,16.0,30.21,WNW,298,2.0,8.0,58,0.00,,,0.00,,2013-02-16 00:21:00,
2013-02-15 18:32:00,28.0,16.0,30.21,WNW,284,3.0,7.0,59,0.00,,,0.00,,2013-02-16 00:32:00,
2013-02-15 18:41:00,28.0,16.0,30.21,WNW,284,3.0,7.0,59,0.00,,,0.00,,2013-02-16 00:41:00,
2013-02-15 18:52:00,28.0,16.0,30.22,WNW,287,3.0,7.0,59,0.00,,,0.00,,2013-02-16 00:52:00,
2013-02-15 19:02:00,28.0,16.0,30.22,WNW,293,1.0,7.0,60,0.00,,,0.00,,2013-02-16 01:02:00,
2013-02-15 19:11:00,28.0,16.0,30.22,WNW,293,1.0,7.0,60,0.00,,,0.00,,2013-02-16 01:11:00,
2013-02-15 19:21:00,27.0,15.0,30.22,NW,304,4.0,9.0,59,0.00,,,0.00,,2013-02-16 01:21:00,
2013-02-15 19:31:00,27.0,15.0,30.22,West,281,3.0,7.0,60,0.00,,,0.00,,2013-02-16 01:31:00,
2013-02-15 19:42:00,27.0,15.0,30.22,West,281,3.0,7.0,60,0.00,,,0.00,,2013-02-16 01:42:00,
2013-02-15 19:52:00,26.0,14.0,30.22,NW,305,2.0,12.0,60,0.00,,,0.00,,2013-02-16 01:52:00,
2013-02-15 20:01:00,26.0,14.0,30.22,West,277,3.0,7.0,61,0.00,,,0.00,,2013-02-16 02:01:00,
2013-02-15 20:11:00,26.0,14.0,30.22,West,277,3.0,7.0,61,0.00,,,0.00,,2013-02-16 02:11:00,
2013-02-15 20:21:00,25.0,14.0,30.22,WSW,243,3.0,9.0,63,0.00,,,0.00,,2013-02-16 02:21:00,
2013-02-15 20:31:00,25.0,15.0,30.23,WNW,288,3.0,9.0,65,0.00,,,0.00,,2013-02-16 02:31:00,
2013-02-15 20:42:00,25.0,15.0,30.23,WNW,288,3.0,9.0,65,0.00,,,0.00,,2013-02-16 02:42:00,
2013-02-15 20:52:00,24.0,15.0,30.22,WNW,300,3.0,8.0,67,0.00,,,0.00,,2013-02-16 02:52:00,
2013-02-15 21:01:00,24.0,15.0,30.23,WNW,302,2.0,10.0,68,0.00,,,0.00,,2013-02-16 03:01:00,
2013-02-15 21:11:00,24.0,15.0,30.23,WNW,302,2.0,10.0,68,0.00,,,0.00,,2013-02-16 03:11:00,
2013-02-15 21:21:00,23.0,15.0,30.23,NW,304,4.0,9.0,70,0.00,,,0.00,,2013-02-16 03:21:00,
2013-02-15 21:32:00,23.0,15.0,30.23,WNW,296,3.0,8.0,72,0.00,,,0.00,,2013-02-16 03:32:00,
2013-02-15 21:41:00,23.0,15.0,30.23,WNW,296,3.0,8.0,72,0.00,,,0.00,,2013-02-16 03:41:00,
2013-02-15 21:52:00,23.0,16.0,30.23,WSW,257,4.0,11.0,73,0.00,,,0.00,,2013-02-16 03:52:00,
2013-02-15 22:01:00,23.0,15.0,30.22,NW,306,4.0,12.0,70,0.00,,,0.00,,2013-02-16 04:01:00,
2013-02-15 22:11:00,23.0,15.0,30.22,NW,306,4.0,12.0,70,0.00,,,0.00,,2013-02-16 04:11:00,
2013-02-15 22:21:00,22.0,13.0,30.22,WNW,302,4.0,11.0,68,0.00,,,0.00,,2013-02-16 04:21:00,
2013-02-15 22:32:00,22.0,13.0,30.23,West,259,3.0,10.0,69,0.00,,,0.00,,2013-02-16 04:32:00,
2013-02-15 22:41:00,22.0,13.0,30.23,West,259,3.0,10.0,69,0.00,,,0.00,,2013-02-16 04:41:00,
2013-02-15 22:52:00,22.0,13.0,30.22,NW,304,2.0,6.0,69,0.00,,,0.00,,2013-02-16 04:52:00,
2013-02-15 23:01:00,21.0,12.0,30.22,West,281,3.0,9.0,69,0.00,,,0.00,,2013-02-16 05:01:00,
2013-02-15 23:12:00,21.0,12.0,30.22,West,281,3.0,9.0,69,0.00,,,0.00,,2013-02-16 05:12:00,
2013-02-15 23:22:00,21.0,12.0,30.22,West,281,3.0,9.0,69,0.00,,,0.00,,2013-02-16 05:22:00,
2013-02-15 23:32:00,21.0,13.0,30.22,NW,304,3.0,7.0,70,0.00,,,0.00,,2013-02-16 05:32:00,
2013-02-15 23:42:00,21.0,13.0,30.22,NW,304,3.0,7.0,70,0.00,,,0.00,,2013-02-16 05:42:00,
2013-02-15 23:52:00,21.0,13.0,30.22,NW,311,3.0,11.0,71,0.00,,,0.00,,2013-02-16 05:52:00,